South Lawrence, Massachusetts
Current Conditions -  °F | °C
As of 7:32 PM on Friday 24 Oct 2014 (Local Time) from KLWM Reporting Station
Overcast Overcast  
Wind Chill: 50°   Ceiling: 2300
Heat Index: 50°   Visibility: 10mi
Dew Point: 42°   Wind: 9mph
Humidity: 74%   Direction: 300°WNW
Pressure: 29.74"   Gusts: NA
Location:  42.6899°N, 71.1616°W
Report Text: KLWM 242332Z 30008KT 10SM BKN023 OVC037 10/06 A2974 RMK AO2 T01000056
Loading
Personal Weather Stations






























Interactive Weather Map
Tropical Storm Tracking
New forecast layout! Learn more

10-Day Weather Forecast

Advertisements
Track Severe Weather on mobile